Arcadia Highway — 3FQT4 — position and weather

sailwx.info

Track history (hours):
 
Tides and Currents Weather Stations Pressure Air Temp Water Temp Dewpoint Dewpoint Depression Visibility Wind Speed Wind Dir Waves Ship Positions

Arcadia Highway

Last reported at 2017-Aug-19 05:53 UTC. Time now 2017-Aug-22 09:14 UTC.
Position N 37°31' W 132°04'.

Length 179 m; draft 7.3 m.

Type: Cargo ship. MMSI: 354342000.

Date/timePositionNaut miles runAvg speedWind from/ knotsBaromVisibWave heightAir tempDewpointWater temp
2017-Aug-19 05:53N 37°31' W 132°04'715.6
2017-Aug-19 05:26N 37°28' W 131°56'1615.5
2017-Aug-19 04:22N 37°20' W 131°38'615.2
2017-Aug-19 04:00N 37°18' W 131°32'2315.3
2017-Aug-19 02:32N 37°06' W 131°07'016.3
2017-Aug-19 02:30N 37°06' W 131°07'815.2
2017-Aug-19 02:00N 37°02' W 130°58'10715.0
2017-Aug-18 18:53N 36°09' W 129°03'514.7
2017-Aug-18 18:30N 36°07' W 128°56'714.8
2017-Aug-18 18:00N 36°04' W 128°48'815.0
2017-Aug-18 17:28N 36°01' W 128°39'1610.6
2017-Aug-18 15:55N 35°52' W 128°22'614.6
2017-Aug-18 15:30N 35°49' W 128°15'6414.6
2017-Aug-18 11:09N 35°18' W 127°06'214.7
2017-Aug-18 11:00N 35°17' W 127°04'5515.1
2017-Aug-18 07:20N 34°54' W 126°03'615.4
2017-Aug-18 06:59N 34°52' W 125°56'3314.9
2017-Aug-18 04:46N 34°33' W 125°24'414.6
2017-Aug-18 04:29N 34°31' W 125°20'714.2
2017-Aug-18 04:00N 34°27' W 125°13'7714.4
2017-Aug-17 22:40N 34°27' W 123°40'314.6
2017-Aug-17 22:28N 34°27' W 123°36'714.5
2017-Aug-17 21:58N 34°27' W 123°27'814.5
2017-Aug-17 21:25N 34°27' W 123°18'614.4
2017-Aug-17 21:00N 34°27' W 123°10'714.3
2017-Aug-17 20:30N 34°27' W 123°02'814.5
2017-Aug-17 19:56N 34°27' W 122°51'2114.8
2017-Aug-17 18:30N 34°27' W 122°26'2814.9
2017-Aug-17 16:36N 34°30' W 121°52'214.5
2017-Aug-17 16:27N 34°30' W 121°49'614.9
2017-Aug-17 16:01N 34°30' W 121°41'815.0
2017-Aug-17 15:30N 34°30' W 121°32'815.3
2017-Aug-17 15:00N 34°30' W 121°23'714.7
2017-Aug-17 14:30N 34°28' W 121°14'915.1
2017-Aug-17 13:55N 34°27' W 121°04'615.2
2017-Aug-17 13:30N 34°27' W 120°56'612.5
2017-Aug-17 12:59N 34°25' W 120°48'5 9.6
2017-Aug-17 12:30N 34°24' W 120°43'5 9.4
2017-Aug-17 11:59N 34°23' W 120°37'4 9.4
2017-Aug-17 11:30N 34°22' W 120°32'5 9.8
2017-Aug-17 11:00N 34°21' W 120°26'713.8
2017-Aug-17 10:30N 34°19' W 120°18'815.5
2017-Aug-17 10:00N 34°17' W 120°09'815.3
2017-Aug-17 09:30N 34°14' W 120°00'715.0
2017-Aug-17 09:00N 34°12' W 119°51'714.9
2017-Aug-17 08:30N 34°10' W 119°43'714.9
2017-Aug-17 08:00N 34°09' W 119°34'815.0
2017-Aug-17 07:30N 34°07' W 119°25'611.6
2017-Aug-17 07:00N 34°06' W 119°18'3 6.8
2017-Aug-17 06:30N 34°07' W 119°14'3 5.4
2017-Aug-17 06:00N 34°09' W 119°12'0 0.0
2017-Aug-17 05:29N 34°09' W 119°12'0 0.0
2017-Aug-17 04:50N 34°09' W 119°12'0 0.0
2017-Aug-17 04:30N 34°09' W 119°12'0 0.0
2017-Aug-17 04:00N 34°09' W 119°12'0 0.0
2017-Aug-17 03:29N 34°09' W 119°12'0 0.0
2017-Aug-17 02:59N 34°09' W 119°12'0 0.0
2017-Aug-17 02:29N 34°09' W 119°12'0 0.0
2017-Aug-17 01:57N 34°09' W 119°12'0 0.0
2017-Aug-17 01:26N 34°09' W 119°12'0 0.0
2017-Aug-17 00:59N 34°09' W 119°12'0 0.0
2017-Aug-17 00:29N 34°09' W 119°12'0 0.0
2017-Aug-16 23:59N 34°09' W 119°12'0 0.2
2017-Aug-16 23:31N 34°09' W 119°12'2 4.6
2017-Aug-16 23:01N 34°07' W 119°14'3 5.9
2017-Aug-16 22:30N 34°04' W 119°14'4 7.4
2017-Aug-16 22:00N 34°02' W 119°10'4 7.7
2017-Aug-16 21:29N 34°00' W 119°06'4 7.6
2017-Aug-16 21:00N 33°58' W 119°02'4 7.1
2017-Aug-16 20:29N 33°55' W 118°60'4 8.2
2017-Aug-16 20:00N 33°51' W 119°00'3 6.4
2017-Aug-16 19:29N 33°49' W 118°58'4 8.9
2017-Aug-16 19:00N 33°45' W 118°55'611.8
2017-Aug-16 18:30N 33°40' W 118°51'815.4
2017-Aug-16 18:00N 33°33' W 118°48'815.3
2017-Aug-16 17:30N 33°26' W 118°43'815.4
2017-Aug-16 17:00N 33°20' W 118°38'815.2
2017-Aug-16 16:31N 33°14' W 118°33'815.0
2017-Aug-16 16:00N 33°09' W 118°26'815.4
2017-Aug-16 15:30N 33°04' W 118°19'815.6
2017-Aug-16 15:00N 32°59' W 118°11'815.5
2017-Aug-16 14:30N 32°54' W 118°04'815.4
2017-Aug-16 14:00N 32°50' W 117°57'815.5
2017-Aug-16 13:30N 32°45' W 117°50'815.2
2017-Aug-16 13:00N 32°40' W 117°43'715.0
2017-Aug-16 12:30N 32°37' W 117°34'815.4
2017-Aug-16 12:00N 32°36' W 117°25'815.0
2017-Aug-16 11:30N 32°37' W 117°16'5 9.2
2017-Aug-16 11:00N 32°41' W 117°14'3 6.3
2017-Aug-16 10:30N 32°43' W 117°11'5 9.1
2017-Aug-16 10:00N 32°39' W 117°07'0 0.2
2017-Aug-16 09:28N 32°39' W 117°07'0 0.0
2017-Aug-16 08:58N 32°39' W 117°07'0 0.0
2017-Aug-16 08:28N 32°39' W 117°07'0 0.0
2017-Aug-16 07:58N 32°39' W 117°07'0 0.0
2017-Aug-16 07:28N 32°39' W 117°07'0 0.0
2017-Aug-16 06:58N 32°39' W 117°07'0 0.0
2017-Aug-16 06:28N 32°39' W 117°07'0 0.0
2017-Aug-16 05:58N 32°39' W 117°07'0 0.0
2017-Aug-16 05:28N 32°39' W 117°07'0 0.0
2017-Aug-16 04:58N 32°39' W 117°07'0 0.0
2017-Aug-16 04:28N 32°39' W 117°07'0 0.0
2017-Aug-16 03:58N 32°39' W 117°07'0 0.0
2017-Aug-16 03:28N 32°39' W 117°07'0 0.0
2017-Aug-16 02:55N 32°39' W 117°07'0 0.0
2017-Aug-16 02:28N 32°39' W 117°07'0 0.0
2017-Aug-16 01:58N 32°39' W 117°07'0 0.0
2017-Aug-16 01:25N 32°39' W 117°07'0 0.0
2017-Aug-16 00:58N 32°39' W 117°07'0 0.0
2017-Aug-16 00:28N 32°39' W 117°07'0 0.0
2017-Aug-15 23:55N 32°39' W 117°07'0 0.0
2017-Aug-15 23:25N 32°39' W 117°07'0 0.0
2017-Aug-15 22:58N 32°39' W 117°07'0 0.0
2017-Aug-15 22:28N 32°39' W 117°07'0 0.0
2017-Aug-15 21:58N 32°39' W 117°07'0 0.0
2017-Aug-15 21:28N 32°39' W 117°07'0 0.0
2017-Aug-15 20:58N 32°39' W 117°07'0 0.0
2017-Aug-15 20:28N 32°39' W 117°07'0 0.0
2017-Aug-15 19:58N 32°39' W 117°07'0 0.0
2017-Aug-15 19:28N 32°39' W 117°07'0 0.0
2017-Aug-15 18:58N 32°39' W 117°07'0 0.0
2017-Aug-15 18:28N 32°39' W 117°07'0 0.0
2017-Aug-15 17:58N 32°39' W 117°07'0 0.0
2017-Aug-15 17:22N 32°39' W 117°07'0 0.0
2017-Aug-15 16:58N 32°39' W 117°07'0 0.0
2017-Aug-15 16:30N 32°39' W 117°07'1 2.4
2017-Aug-15 16:00N 32°40' W 117°08'510.3
2017-Aug-15 15:30N 32°43' W 117°13'5 9.8
2017-Aug-15 15:00N 32°38' W 117°13'3 4.0
2017-Aug-15 14:22N 32°37' W 117°11'0 0.0
2017-Aug-15 13:58N 32°37' W 117°11'0 0.0
2017-Aug-15 13:28N 32°37' W 117°11'0 0.0
2017-Aug-15 12:58N 32°37' W 117°11'0 0.0
2017-Aug-15 12:28N 32°37' W 117°11'0 0.0
2017-Aug-15 11:55N 32°37' W 117°11'0 0.0
2017-Aug-15 11:28N 32°37' W 117°11'0 0.0
2017-Aug-15 10:58N 32°37' W 117°11'0 0.0
2017-Aug-15 10:28N 32°37' W 117°11'0 0.0
2017-Aug-15 09:58N 32°37' W 117°11'0 0.0
2017-Aug-15 09:28N 32°37' W 117°11'0 0.0
2017-Aug-15 08:58N 32°37' W 117°11'0 0.0
2017-Aug-15 08:28N 32°37' W 117°11'0 0.0
2017-Aug-15 07:58N 32°37' W 117°11'0 0.0
2017-Aug-15 07:28N 32°37' W 117°11'0 0.0
2017-Aug-15 06:58N 32°37' W 117°11'0 0.0
2017-Aug-15 06:28N 32°37' W 117°11'0 0.0
2017-Aug-15 05:58N 32°37' W 117°11'0 0.0
2017-Aug-15 05:28N 32°37' W 117°11'0 0.0
2017-Aug-15 04:58N 32°37' W 117°11'0 0.0
2017-Aug-15 04:28N 32°37' W 117°11'0 0.0
2017-Aug-15 03:58N 32°37' W 117°11'0 0.0
2017-Aug-15 03:28N 32°37' W 117°11'0 0.0
2017-Aug-15 02:58N 32°37' W 117°11'0 0.0
2017-Aug-15 02:28N 32°37' W 117°11'0 0.0
2017-Aug-15 01:58N 32°37' W 117°11'0 0.0
2017-Aug-15 01:28N 32°37' W 117°11'0 0.0
2017-Aug-15 00:58N 32°37' W 117°11'0 0.0
2017-Aug-15 00:28N 32°37' W 117°11'0 0.0
2017-Aug-14 23:52N 32°37' W 117°11'0 0.0
2017-Aug-14 23:28N 32°37' W 117°11'0 0.0
2017-Aug-14 22:58N 32°37' W 117°11'0 0.0
2017-Aug-14 22:28N 32°37' W 117°11'0 0.0
2017-Aug-14 21:58N 32°37' W 117°11'0 0.0
2017-Aug-14 21:28N 32°37' W 117°11'0 0.0
2017-Aug-14 20:58N 32°37' W 117°11'0 0.0
2017-Aug-14 20:28N 32°37' W 117°11'0 0.0
2017-Aug-14 19:58N 32°37' W 117°11'0 0.0
2017-Aug-14 19:28N 32°37' W 117°11'0 0.0
2017-Aug-14 18:58N 32°37' W 117°11'0 0.0
2017-Aug-14 18:28N 32°37' W 117°11'0 0.0
2017-Aug-14 17:58N 32°37' W 117°11'0 0.0
2017-Aug-14 17:28N 32°37' W 117°11'0 0.0
2017-Aug-14 16:55N 32°37' W 117°11'0 0.0
2017-Aug-14 16:28N 32°37' W 117°11'0 0.0
2017-Aug-14 15:55N 32°37' W 117°11'0 0.0
2017-Aug-14 15:28N 32°37' W 117°11'0 0.0
2017-Aug-14 14:55N 32°37' W 117°11'0 0.0
2017-Aug-14 14:28N 32°37' W 117°11'0 0.0
2017-Aug-14 13:58N 32°37' W 117°11'0 0.0
2017-Aug-14 13:28N 32°37' W 117°11'0 0.0
2017-Aug-14 12:49N 32°37' W 117°11'0 0.0
2017-Aug-14 12:28N 32°37' W 117°11'0 0.0
2017-Aug-14 11:58N 32°37' W 117°11'0 0.0
2017-Aug-14 11:28N 32°37' W 117°11'0 0.0
2017-Aug-14 10:58N 32°37' W 117°11'0 0.0
2017-Aug-14 10:28N 32°37' W 117°11'0 0.0
2017-Aug-14 09:58N 32°37' W 117°11'0 0.0
2017-Aug-14 09:28N 32°37' W 117°11'0 0.0
2017-Aug-14 08:58N 32°37' W 117°11'0 0.0
2017-Aug-14 08:28N 32°37' W 117°11'0 0.0
2017-Aug-14 07:58N 32°37' W 117°11'0 0.0
2017-Aug-14 07:28N 32°37' W 117°11'0 0.0
2017-Aug-14 06:58N 32°37' W 117°11'0 0.0
2017-Aug-14 06:28N 32°37' W 117°11'0 0.0
2017-Aug-14 05:58N 32°37' W 117°11'0 0.0
2017-Aug-14 05:28N 32°37' W 117°11'0 0.0
2017-Aug-14 04:58N 32°37' W 117°11'0 0.0
2017-Aug-14 04:28N 32°37' W 117°11'0 0.0
2017-Aug-14 03:58N 32°37' W 117°11'0 0.0
2017-Aug-14 03:28N 32°37' W 117°11'0 0.0
2017-Aug-14 02:58N 32°37' W 117°11'0 0.0
2017-Aug-14 02:28N 32°37' W 117°11'0 0.0
2017-Aug-14 01:58N 32°37' W 117°11'0 0.0
2017-Aug-14 01:25N 32°37' W 117°11'0 0.0
2017-Aug-14 00:58N 32°37' W 117°11'0 0.0
2017-Aug-14 00:28N 32°37' W 117°11'0 0.0
2017-Aug-13 23:55N 32°37' W 117°11'0 0.1
2017-Aug-13 23:25N 32°37' W 117°11'0 0.1
2017-Aug-13 22:58N 32°37' W 117°11'0 0.1
2017-Aug-13 22:28N 32°37' W 117°11'0 0.1
2017-Aug-13 21:58N 32°37' W 117°11'0 0.1
2017-Aug-13 21:28N 32°37' W 117°11'0 0.1
2017-Aug-13 20:58N 32°37' W 117°11'1 2.6
2017-Aug-13 20:30N 32°36' W 117°12'3 6.8
2017-Aug-13 20:00N 32°34' W 117°15'5 9.9
2017-Aug-13 19:30N 32°30' W 117°19'5 9.4
2017-Aug-13 19:00N 32°26' W 117°21'5 9.7
2017-Aug-13 18:30N 32°21' W 117°21'5 9.8
2017-Aug-13 18:00N 32°16' W 117°21'5 9.8
2017-Aug-13 17:29N 32°11' W 117°22'4 9.6
2017-Aug-13 17:00N 32°06' W 117°23'5 9.6
2017-Aug-13 16:30N 32°02' W 117°24'5 9.5
2017-Aug-13 16:00N 31°57' W 117°25'5 9.6
2017-Aug-13 15:30N 31°52' W 117°26'5 9.5
2017-Aug-13 15:00N 31°48' W 117°26'4 8.5
2017-Aug-13 14:30N 31°44' W 117°28'510.2
2017-Aug-13 14:00N 31°44' W 117°34'510.1
2017-Aug-13 13:30N 31°44' W 117°40'2 4.6
2017-Aug-13 13:00N 31°42' W 117°38'510.9
2017-Aug-13 12:30N 31°41' W 117°32'511.0
2017-Aug-13 12:00N 31°41' W 117°25'611.3
2017-Aug-13 11:30N 31°39' W 117°19'612.2
2017-Aug-13 11:00N 31°39' W 117°12'510.7
2017-Aug-13 10:30N 31°37' W 117°06'3 6.1
2017-Aug-13 10:00N 31°34' W 117°05'4 7.7
2017-Aug-13 09:30N 31°31' W 117°04'815.0
2017-Aug-13 09:00N 31°24' W 117°01'815.2
2017-Aug-13 08:30N 31°16' W 116°59'714.8
2017-Aug-13 08:00N 31°09' W 116°57'714.4
2017-Aug-13 07:30N 31°02' W 116°55'714.3
2017-Aug-13 07:00N 30°55' W 116°53'714.5
2017-Aug-13 06:30N 30°48' W 116°50'814.5
2017-Aug-13 05:57N 30°40' W 116°48'2514.9
2017-Aug-13 04:17N 30°16' W 116°40'414.8
2017-Aug-13 04:00N 30°12' W 116°39'714.8
2017-Aug-13 03:30N 30°05' W 116°37'6614.8
2017-Aug-12 23:03N 29°01' W 116°18'915.0
2017-Aug-12 22:28N 28°53' W 116°16'715.1
2017-Aug-12 22:00N 28°46' W 116°14'915.1
2017-Aug-12 21:24N 28°38' W 116°11'715.0
2017-Aug-12 20:57N 28°31' W 116°09'715.1
2017-Aug-12 20:30N 28°24' W 116°07'10516.0
2017-Aug-12 13:58N 26°55' W 115°06'5014.6
2017-Aug-12 10:31N 26°14' W 114°33'017.1
2017-Aug-12 10:30N 26°14' W 114°33'714.5
2017-Aug-12 10:00N 26°08' W 114°28'714.5
2017-Aug-12 09:30N 26°02' W 114°23'814.7
2017-Aug-12 08:57N 25°56' W 114°18'714.8
2017-Aug-12 08:30N 25°50' W 114°14'1814.2
2017-Aug-12 07:16N 25°37' W 114°02'1014.7
2017-Aug-12 06:33N 25°28' W 113°55'114.5
2017-Aug-12 06:30N 25°28' W 113°54'814.6
2017-Aug-12 05:59N 25°21' W 113°49'714.8
2017-Aug-12 05:29N 25°15' W 113°45'714.7
2017-Aug-12 05:00N 25°10' W 113°40'815.0
2017-Aug-12 04:30N 25°04' W 113°35'1115.0
2017-Aug-12 03:48N 24°56' W 113°28'1315.3
2017-Aug-12 02:56N 24°46' W 113°18'  
Track history (hours):
 
Tides and Currents Weather Stations Pressure Air Temp Water Temp Dewpoint Dewpoint Depression Visibility Wind Speed Wind Dir Waves Ship Positions

Arcadia Highway

Last reported at 2017-Aug-19 05:53 UTC. Time now 2017-Aug-22 09:14 UTC.
Position N 37°31' W 132°04'.

Length 179 m; draft 7.3 m.

Type: Cargo ship. MMSI: 354342000.

Date/timePositionNaut miles runAvg speedWind from/ knotsBaromVisibWave heightAir tempDewpointWater temp
2017-Aug-19 05:53N 37°31' W 132°04'715.6
2017-Aug-19 05:26N 37°28' W 131°56'1615.5
2017-Aug-19 04:22N 37°20' W 131°38'615.2
2017-Aug-19 04:00N 37°18' W 131°32'2315.3
2017-Aug-19 02:32N 37°06' W 131°07'016.3
2017-Aug-19 02:30N 37°06' W 131°07'815.2
2017-Aug-19 02:00N 37°02' W 130°58'10715.0
2017-Aug-18 18:53N 36°09' W 129°03'514.7
2017-Aug-18 18:30N 36°07' W 128°56'714.8
2017-Aug-18 18:00N 36°04' W 128°48'815.0
2017-Aug-18 17:28N 36°01' W 128°39'1610.6
2017-Aug-18 15:55N 35°52' W 128°22'614.6
2017-Aug-18 15:30N 35°49' W 128°15'6414.6
2017-Aug-18 11:09N 35°18' W 127°06'214.7
2017-Aug-18 11:00N 35°17' W 127°04'5515.1
2017-Aug-18 07:20N 34°54' W 126°03'615.4
2017-Aug-18 06:59N 34°52' W 125°56'3314.9
2017-Aug-18 04:46N 34°33' W 125°24'414.6
2017-Aug-18 04:29N 34°31' W 125°20'714.2
2017-Aug-18 04:00N 34°27' W 125°13'7714.4
2017-Aug-17 22:40N 34°27' W 123°40'314.6
2017-Aug-17 22:28N 34°27' W 123°36'714.5
2017-Aug-17 21:58N 34°27' W 123°27'814.5
2017-Aug-17 21:25N 34°27' W 123°18'614.4
2017-Aug-17 21:00N 34°27' W 123°10'714.3
2017-Aug-17 20:30N 34°27' W 123°02'814.5
2017-Aug-17 19:56N 34°27' W 122°51'2114.8
2017-Aug-17 18:30N 34°27' W 122°26'2814.9
2017-Aug-17 16:36N 34°30' W 121°52'214.5
2017-Aug-17 16:27N 34°30' W 121°49'614.9
2017-Aug-17 16:01N 34°30' W 121°41'815.0
2017-Aug-17 15:30N 34°30' W 121°32'815.3
2017-Aug-17 15:00N 34°30' W 121°23'714.7
2017-Aug-17 14:30N 34°28' W 121°14'915.1
2017-Aug-17 13:55N 34°27' W 121°04'615.2
2017-Aug-17 13:30N 34°27' W 120°56'612.5
2017-Aug-17 12:59N 34°25' W 120°48'5 9.6
2017-Aug-17 12:30N 34°24' W 120°43'5 9.4
2017-Aug-17 11:59N 34°23' W 120°37'4 9.4
2017-Aug-17 11:30N 34°22' W 120°32'5 9.8
2017-Aug-17 11:00N 34°21' W 120°26'713.8
2017-Aug-17 10:30N 34°19' W 120°18'815.5
2017-Aug-17 10:00N 34°17' W 120°09'815.3
2017-Aug-17 09:30N 34°14' W 120°00'715.0
2017-Aug-17 09:00N 34°12' W 119°51'714.9
2017-Aug-17 08:30N 34°10' W 119°43'714.9
2017-Aug-17 08:00N 34°09' W 119°34'815.0
2017-Aug-17 07:30N 34°07' W 119°25'611.6
2017-Aug-17 07:00N 34°06' W 119°18'3 6.8
2017-Aug-17 06:30N 34°07' W 119°14'3 5.4
2017-Aug-17 06:00N 34°09' W 119°12'0 0.0
2017-Aug-17 05:29N 34°09' W 119°12'0 0.0
2017-Aug-17 04:50N 34°09' W 119°12'0 0.0
2017-Aug-17 04:30N 34°09' W 119°12'0 0.0
2017-Aug-17 04:00N 34°09' W 119°12'0 0.0
2017-Aug-17 03:29N 34°09' W 119°12'0 0.0
2017-Aug-17 02:59N 34°09' W 119°12'0 0.0
2017-Aug-17 02:29N 34°09' W 119°12'0 0.0
2017-Aug-17 01:57N 34°09' W 119°12'0 0.0
2017-Aug-17 01:26N 34°09' W 119°12'0 0.0
2017-Aug-17 00:59N 34°09' W 119°12'0 0.0
2017-Aug-17 00:29N 34°09' W 119°12'0 0.0
2017-Aug-16 23:59N 34°09' W 119°12'0 0.2
2017-Aug-16 23:31N 34°09' W 119°12'2 4.6
2017-Aug-16 23:01N 34°07' W 119°14'3 5.9
2017-Aug-16 22:30N 34°04' W 119°14'4 7.4
2017-Aug-16 22:00N 34°02' W 119°10'4 7.7
2017-Aug-16 21:29N 34°00' W 119°06'4 7.6
2017-Aug-16 21:00N 33°58' W 119°02'4 7.1
2017-Aug-16 20:29N 33°55' W 118°60'4 8.2
2017-Aug-16 20:00N 33°51' W 119°00'3 6.4
2017-Aug-16 19:29N 33°49' W 118°58'4 8.9
2017-Aug-16 19:00N 33°45' W 118°55'611.8
2017-Aug-16 18:30N 33°40' W 118°51'815.4
2017-Aug-16 18:00N 33°33' W 118°48'815.3
2017-Aug-16 17:30N 33°26' W 118°43'815.4
2017-Aug-16 17:00N 33°20' W 118°38'815.2
2017-Aug-16 16:31N 33°14' W 118°33'815.0
2017-Aug-16 16:00N 33°09' W 118°26'815.4
2017-Aug-16 15:30N 33°04' W 118°19'815.6
2017-Aug-16 15:00N 32°59' W 118°11'815.5
2017-Aug-16 14:30N 32°54' W 118°04'815.4
2017-Aug-16 14:00N 32°50' W 117°57'815.5
2017-Aug-16 13:30N 32°45' W 117°50'815.2
2017-Aug-16 13:00N 32°40' W 117°43'715.0
2017-Aug-16 12:30N 32°37' W 117°34'815.4
2017-Aug-16 12:00N 32°36' W 117°25'815.0
2017-Aug-16 11:30N 32°37' W 117°16'5 9.2
2017-Aug-16 11:00N 32°41' W 117°14'3 6.3
2017-Aug-16 10:30N 32°43' W 117°11'5 9.1
2017-Aug-16 10:00N 32°39' W 117°07'0 0.2
2017-Aug-16 09:28N 32°39' W 117°07'0 0.0
2017-Aug-16 08:58N 32°39' W 117°07'0 0.0
2017-Aug-16 08:28N 32°39' W 117°07'0 0.0
2017-Aug-16 07:58N 32°39' W 117°07'0 0.0
2017-Aug-16 07:28N 32°39' W 117°07'0 0.0
2017-Aug-16 06:58N 32°39' W 117°07'0 0.0
2017-Aug-16 06:28N 32°39' W 117°07'0 0.0
2017-Aug-16 05:58N 32°39' W 117°07'0 0.0
2017-Aug-16 05:28N 32°39' W 117°07'0 0.0
2017-Aug-16 04:58N 32°39' W 117°07'0 0.0
2017-Aug-16 04:28N 32°39' W 117°07'0 0.0
2017-Aug-16 03:58N 32°39' W 117°07'0 0.0
2017-Aug-16 03:28N 32°39' W 117°07'0 0.0
2017-Aug-16 02:55N 32°39' W 117°07'0 0.0
2017-Aug-16 02:28N 32°39' W 117°07'0 0.0
2017-Aug-16 01:58N 32°39' W 117°07'0 0.0
2017-Aug-16 01:25N 32°39' W 117°07'0 0.0
2017-Aug-16 00:58N 32°39' W 117°07'0 0.0
2017-Aug-16 00:28N 32°39' W 117°07'0 0.0
2017-Aug-15 23:55N 32°39' W 117°07'0 0.0
2017-Aug-15 23:25N 32°39' W 117°07'0 0.0
2017-Aug-15 22:58N 32°39' W 117°07'0 0.0
2017-Aug-15 22:28N 32°39' W 117°07'0 0.0
2017-Aug-15 21:58N 32°39' W 117°07'0 0.0
2017-Aug-15 21:28N 32°39' W 117°07'0 0.0
2017-Aug-15 20:58N 32°39' W 117°07'0 0.0
2017-Aug-15 20:28N 32°39' W 117°07'0 0.0
2017-Aug-15 19:58N 32°39' W 117°07'0 0.0
2017-Aug-15 19:28N 32°39' W 117°07'0 0.0
2017-Aug-15 18:58N 32°39' W 117°07'0 0.0
2017-Aug-15 18:28N 32°39' W 117°07'0 0.0
2017-Aug-15 17:58N 32°39' W 117°07'0 0.0
2017-Aug-15 17:22N 32°39' W 117°07'0 0.0
2017-Aug-15 16:58N 32°39' W 117°07'0 0.0
2017-Aug-15 16:30N 32°39' W 117°07'1 2.4
2017-Aug-15 16:00N 32°40' W 117°08'510.3
2017-Aug-15 15:30N 32°43' W 117°13'5 9.8
2017-Aug-15 15:00N 32°38' W 117°13'3 4.0
2017-Aug-15 14:22N 32°37' W 117°11'0 0.0
2017-Aug-15 13:58N 32°37' W 117°11'0 0.0
2017-Aug-15 13:28N 32°37' W 117°11'0 0.0
2017-Aug-15 12:58N 32°37' W 117°11'0 0.0
2017-Aug-15 12:28N 32°37' W 117°11'0 0.0
2017-Aug-15 11:55N 32°37' W 117°11'0 0.0
2017-Aug-15 11:28N 32°37' W 117°11'0 0.0
2017-Aug-15 10:58N 32°37' W 117°11'0 0.0
2017-Aug-15 10:28N 32°37' W 117°11'0 0.0
2017-Aug-15 09:58N 32°37' W 117°11'0 0.0
2017-Aug-15 09:28N 32°37' W 117°11'0 0.0
2017-Aug-15 08:58N 32°37' W 117°11'0 0.0
2017-Aug-15 08:28N 32°37' W 117°11'0 0.0
2017-Aug-15 07:58N 32°37' W 117°11'0 0.0
2017-Aug-15 07:28N 32°37' W 117°11'0 0.0
2017-Aug-15 06:58N 32°37' W 117°11'0 0.0
2017-Aug-15 06:28N 32°37' W 117°11'0 0.0
2017-Aug-15 05:58N 32°37' W 117°11'0 0.0
2017-Aug-15 05:28N 32°37' W 117°11'0 0.0
2017-Aug-15 04:58N 32°37' W 117°11'0 0.0
2017-Aug-15 04:28N 32°37' W 117°11'0 0.0
2017-Aug-15 03:58N 32°37' W 117°11'0 0.0
2017-Aug-15 03:28N 32°37' W 117°11'0 0.0
2017-Aug-15 02:58N 32°37' W 117°11'0 0.0
2017-Aug-15 02:28N 32°37' W 117°11'0 0.0
2017-Aug-15 01:58N 32°37' W 117°11'0 0.0
2017-Aug-15 01:28N 32°37' W 117°11'0 0.0
2017-Aug-15 00:58N 32°37' W 117°11'0 0.0
2017-Aug-15 00:28N 32°37' W 117°11'0 0.0
2017-Aug-14 23:52N 32°37' W 117°11'0 0.0
2017-Aug-14 23:28N 32°37' W 117°11'0 0.0
2017-Aug-14 22:58N 32°37' W 117°11'0 0.0
2017-Aug-14 22:28N 32°37' W 117°11'0 0.0
2017-Aug-14 21:58N 32°37' W 117°11'0 0.0
2017-Aug-14 21:28N 32°37' W 117°11'0 0.0
2017-Aug-14 20:58N 32°37' W 117°11'0 0.0
2017-Aug-14 20:28N 32°37' W 117°11'0 0.0
2017-Aug-14 19:58N 32°37' W 117°11'0 0.0
2017-Aug-14 19:28N 32°37' W 117°11'0 0.0
2017-Aug-14 18:58N 32°37' W 117°11'0 0.0
2017-Aug-14 18:28N 32°37' W 117°11'0 0.0
2017-Aug-14 17:58N 32°37' W 117°11'0 0.0
2017-Aug-14 17:28N 32°37' W 117°11'0 0.0
2017-Aug-14 16:55N 32°37' W 117°11'0 0.0
2017-Aug-14 16:28N 32°37' W 117°11'0 0.0
2017-Aug-14 15:55N 32°37' W 117°11'0 0.0
2017-Aug-14 15:28N 32°37' W 117°11'0 0.0
2017-Aug-14 14:55N 32°37' W 117°11'0 0.0
2017-Aug-14 14:28N 32°37' W 117°11'0 0.0
2017-Aug-14 13:58N 32°37' W 117°11'0 0.0
2017-Aug-14 13:28N 32°37' W 117°11'0 0.0
2017-Aug-14 12:49N 32°37' W 117°11'0 0.0
2017-Aug-14 12:28N 32°37' W 117°11'0 0.0
2017-Aug-14 11:58N 32°37' W 117°11'0 0.0
2017-Aug-14 11:28N 32°37' W 117°11'0 0.0
2017-Aug-14 10:58N 32°37' W 117°11'0 0.0
2017-Aug-14 10:28N 32°37' W 117°11'0 0.0
2017-Aug-14 09:58N 32°37' W 117°11'0 0.0
2017-Aug-14 09:28N 32°37' W 117°11'0 0.0
2017-Aug-14 08:58N 32°37' W 117°11'0 0.0
2017-Aug-14 08:28N 32°37' W 117°11'0 0.0
2017-Aug-14 07:58N 32°37' W 117°11'0 0.0
2017-Aug-14 07:28N 32°37' W 117°11'0 0.0
2017-Aug-14 06:58N 32°37' W 117°11'0 0.0
2017-Aug-14 06:28N 32°37' W 117°11'0 0.0
2017-Aug-14 05:58N 32°37' W 117°11'0 0.0
2017-Aug-14 05:28N 32°37' W 117°11'0 0.0
2017-Aug-14 04:58N 32°37' W 117°11'0 0.0
2017-Aug-14 04:28N 32°37' W 117°11'0 0.0
2017-Aug-14 03:58N 32°37' W 117°11'0 0.0
2017-Aug-14 03:28N 32°37' W 117°11'0 0.0
2017-Aug-14 02:58N 32°37' W 117°11'0 0.0
2017-Aug-14 02:28N 32°37' W 117°11'0 0.0
2017-Aug-14 01:58N 32°37' W 117°11'0 0.0
2017-Aug-14 01:25N 32°37' W 117°11'0 0.0
2017-Aug-14 00:58N 32°37' W 117°11'0 0.0
2017-Aug-14 00:28N 32°37' W 117°11'0 0.0
2017-Aug-13 23:55N 32°37' W 117°11'0 0.1
2017-Aug-13 23:25N 32°37' W 117°11'0 0.1
2017-Aug-13 22:58N 32°37' W 117°11'0 0.1
2017-Aug-13 22:28N 32°37' W 117°11'0 0.1
2017-Aug-13 21:58N 32°37' W 117°11'0 0.1
2017-Aug-13 21:28N 32°37' W 117°11'0 0.1
2017-Aug-13 20:58N 32°37' W 117°11'1 2.6
2017-Aug-13 20:30N 32°36' W 117°12'3 6.8
2017-Aug-13 20:00N 32°34' W 117°15'5 9.9
2017-Aug-13 19:30N 32°30' W 117°19'5 9.4
2017-Aug-13 19:00N 32°26' W 117°21'5 9.7
2017-Aug-13 18:30N 32°21' W 117°21'5 9.8
2017-Aug-13 18:00N 32°16' W 117°21'5 9.8
2017-Aug-13 17:29N 32°11' W 117°22'4 9.6
2017-Aug-13 17:00N 32°06' W 117°23'5 9.6
2017-Aug-13 16:30N 32°02' W 117°24'5 9.5
2017-Aug-13 16:00N 31°57' W 117°25'5 9.6
2017-Aug-13 15:30N 31°52' W 117°26'5 9.5
2017-Aug-13 15:00N 31°48' W 117°26'4 8.5
2017-Aug-13 14:30N 31°44' W 117°28'510.2
2017-Aug-13 14:00N 31°44' W 117°34'510.1
2017-Aug-13 13:30N 31°44' W 117°40'2 4.6
2017-Aug-13 13:00N 31°42' W 117°38'510.9
2017-Aug-13 12:30N 31°41' W 117°32'511.0
2017-Aug-13 12:00N 31°41' W 117°25'611.3
2017-Aug-13 11:30N 31°39' W 117°19'612.2
2017-Aug-13 11:00N 31°39' W 117°12'510.7
2017-Aug-13 10:30N 31°37' W 117°06'3 6.1
2017-Aug-13 10:00N 31°34' W 117°05'4 7.7
2017-Aug-13 09:30N 31°31' W 117°04'815.0
2017-Aug-13 09:00N 31°24' W 117°01'815.2
2017-Aug-13 08:30N 31°16' W 116°59'714.8
2017-Aug-13 08:00N 31°09' W 116°57'714.4
2017-Aug-13 07:30N 31°02' W 116°55'714.3
2017-Aug-13 07:00N 30°55' W 116°53'714.5
2017-Aug-13 06:30N 30°48' W 116°50'814.5
2017-Aug-13 05:57N 30°40' W 116°48'2514.9
2017-Aug-13 04:17N 30°16' W 116°40'414.8
2017-Aug-13 04:00N 30°12' W 116°39'714.8
2017-Aug-13 03:30N 30°05' W 116°37'6614.8
2017-Aug-12 23:03N 29°01' W 116°18'915.0
2017-Aug-12 22:28N 28°53' W 116°16'715.1
2017-Aug-12 22:00N 28°46' W 116°14'915.1
2017-Aug-12 21:24N 28°38' W 116°11'715.0
2017-Aug-12 20:57N 28°31' W 116°09'715.1
2017-Aug-12 20:30N 28°24' W 116°07'10516.0
2017-Aug-12 13:58N 26°55' W 115°06'5014.6
2017-Aug-12 10:31N 26°14' W 114°33'017.1
2017-Aug-12 10:30N 26°14' W 114°33'714.5
2017-Aug-12 10:00N 26°08' W 114°28'714.5
2017-Aug-12 09:30N 26°02' W 114°23'814.7
2017-Aug-12 08:57N 25°56' W 114°18'714.8
2017-Aug-12 08:30N 25°50' W 114°14'1814.2
2017-Aug-12 07:16N 25°37' W 114°02'1014.7
2017-Aug-12 06:33N 25°28' W 113°55'114.5
2017-Aug-12 06:30N 25°28' W 113°54'814.6
2017-Aug-12 05:59N 25°21' W 113°49'714.8
2017-Aug-12 05:29N 25°15' W 113°45'714.7
2017-Aug-12 05:00N 25°10' W 113°40'815.0
2017-Aug-12 04:30N 25°04' W 113°35'1115.0
2017-Aug-12 03:48N 24°56' W 113°28'1315.3
2017-Aug-12 02:56N 24°46' W 113°18'  

Dump ship's entire track history